Time;durP1;ratioP1;P1;durP2;ratioP2;P2;SDS_P1;SDS_P2;PMS_P1;PMS_P2;Temp;Humidity;BMP_temperature;BMP_pressure;BME280_temperature;BME280_humidity;BME280_pressure;Samples;Min_cycle;Max_cycle;Signal;HPM_P1;HPM_P2
2023/09/28 00:00:53;;;;;;;2.50;2.30;;;21.40;99.90;;;;;;5056265;28;20464;-49
2023/09/28 00:03:19;;;;;;;7.47;2.20;;;21.40;99.90;;;;;;5057861;28;20915;-54
2023/09/28 00:05:46;;;;;;;3.70;2.90;;;21.40;99.90;;;;;;5057446;28;20455;-49
2023/09/28 00:08:12;;;;;;;2.70;2.50;;;21.40;99.90;;;;;;5057893;28;20206;-53
2023/09/28 00:10:40;;;;;;;3.63;3.33;;;21.40;99.90;;;;;;5056122;28;20581;-56
2023/09/28 00:13:07;;;;;;;2.77;2.57;;;21.40;99.90;;;;;;5055024;28;21002;-51
2023/09/28 00:15:33;;;;;;;3.00;2.80;;;21.40;99.90;;;;;;5055519;28;20460;-51
2023/09/28 00:17:59;;;;;;;2.93;2.73;;;21.40;99.90;;;;;;5055424;28;20473;-50
2023/09/28 00:20:27;;;;;;;2.40;2.20;;;21.40;99.90;;;;;;5054964;28;20206;-55
2023/09/28 00:22:56;;;;;;;3.10;2.90;;;21.40;99.90;;;;;;5057451;28;20241;-52
2023/09/28 00:25:23;;;;;;;3.10;2.80;;;21.40;99.90;;;;;;5059153;28;21094;-47
2023/09/28 00:27:52;;;;;;;3.20;3.00;;;21.40;99.90;;;;;;5055256;28;20841;-52
2023/09/28 00:30:20;;;;;;;2.87;2.57;;;21.40;99.90;;;;;;5054644;28;20475;-55
2023/09/28 00:32:47;;;;;;;2.57;2.37;;;21.40;99.90;;;;;;5055273;28;20978;-52
2023/09/28 00:35:13;;;;;;;2.80;2.60;;;21.40;99.90;;;;;;5057898;28;20952;-52
2023/09/28 00:37:41;;;;;;;3.20;3.00;;;21.40;99.90;;;;;;5056349;28;20483;-54
2023/09/28 00:40:16;;;;;;;2.50;2.30;;;21.40;99.90;;;;;;5055314;28;20456;-49
2023/09/28 00:42:43;;;;;;;2.50;2.30;;;21.40;99.90;;;;;;5057806;28;20969;-50
2023/09/28 00:45:11;;;;;;;2.97;2.77;;;21.40;99.90;;;;;;5053484;28;22095;-46
2023/09/28 00:47:38;;;;;;;2.30;2.10;;;21.40;99.90;;;;;;5056015;28;20479;-52
2023/09/28 00:50:09;;;;;;;2.17;2.07;;;21.40;99.90;;;;;;5057374;28;20448;-50
2023/09/28 00:52:37;;;;;;;3.20;2.90;;;21.40;99.90;;;;;;5056040;28;20798;-54
2023/09/28 00:55:04;;;;;;;3.83;2.80;;;21.40;99.90;;;;;;5055848;28;20514;-52
2023/09/28 00:57:33;;;;;;;2.33;2.13;;;21.40;99.90;;;;;;5054264;28;20480;-50
2023/09/28 00:59:59;;;;;;;2.60;2.40;;;21.40;99.90;;;;;;5056834;28;20490;-52
2023/09/28 01:02:27;;;;;;;2.57;2.37;;;21.40;99.90;;;;;;5053668;28;20464;-51
2023/09/28 01:04:53;;;;;;;2.67;2.47;;;21.30;99.90;;;;;;5056208;28;20470;-55
2023/09/28 01:07:26;;;;;;;2.73;2.53;;;21.40;99.90;;;;;;5057615;28;20465;-56
2023/09/28 01:09:52;;;;;;;3.40;3.20;;;21.40;99.90;;;;;;5058079;28;20452;-52
2023/09/28 01:12:20;;;;;;;2.70;2.50;;;21.40;99.90;;;;;;5055159;28;20190;-48
2023/09/28 01:14:47;;;;;;;2.40;2.20;;;21.40;99.90;;;;;;5055477;28;20943;-57
2023/09/28 01:17:16;;;;;;;2.70;2.50;;;21.40;99.90;;;;;;5055731;28;20480;-54
2023/09/28 01:19:43;;;;;;;2.80;2.60;;;21.40;99.90;;;;;;5054367;28;20212;-52
2023/09/28 01:22:14;;;;;;;2.23;2.10;;;21.40;99.90;;;;;;5055675;28;20526;-51
2023/09/28 01:24:41;;;;;;;2.97;2.40;;;21.40;99.90;;;;;;5055863;28;20468;-51
2023/09/28 01:27:08;;;;;;;2.57;2.37;;;21.40;99.90;;;;;;5054896;28;20633;-57
2023/09/28 01:29:34;;;;;;;2.63;2.43;;;21.40;99.90;;;;;;5053763;28;20462;-55
2023/09/28 01:32:02;;;;;;;2.50;2.30;;;21.40;99.90;;;;;;5050567;28;20459;-54
2023/09/28 01:34:28;;;;;;;2.83;2.63;;;21.30;99.90;;;;;;5054647;28;20470;-46
2023/09/28 01:36:54;;;;;;;3.00;2.80;;;21.40;99.90;;;;;;5060097;28;20514;-51
2023/09/28 01:39:22;;;;;;;3.03;2.73;;;21.40;99.90;;;;;;5060570;28;20512;-57
2023/09/28 01:41:49;;;;;;;3.27;2.97;;;21.40;99.90;;;;;;5060693;28;21633;-50
2023/09/28 01:44:16;;;;;;;3.47;3.17;;;21.40;99.90;;;;;;5057055;28;20928;-45
2023/09/28 01:46:42;;;;;;;2.80;2.60;;;21.40;99.90;;;;;;5061960;28;20460;-52
2023/09/28 01:49:09;;;;;;;2.90;2.70;;;21.40;99.90;;;;;;5058125;28;20232;-54
2023/09/28 01:51:34;;;;;;;2.73;2.53;;;21.30;99.90;;;;;;5057149;28;20196;-55
2023/09/28 01:54:01;;;;;;;2.93;2.70;;;21.30;99.90;;;;;;5059991;28;20938;-51
2023/09/28 01:56:28;;;;;;;2.90;2.70;;;21.40;99.90;;;;;;5058033;28;20216;-48
2023/09/28 01:58:55;;;;;;;2.23;2.07;;;21.40;99.90;;;;;;5057657;28;20452;-46
2023/09/28 02:01:22;;;;;;;2.53;2.33;;;21.40;99.90;;;;;;5059917;28;20825;-54
2023/09/28 02:03:50;;;;;;;2.77;2.57;;;21.30;99.90;;;;;;5058275;28;20452;-52
2023/09/28 02:06:16;;;;;;;2.50;2.30;;;21.30;99.90;;;;;;5058755;28;20458;-58
2023/09/28 02:08:43;;;;;;;2.80;2.60;;;21.30;99.90;;;;;;5060658;28;20469;-54
2023/09/28 02:11:11;;;;;;;2.30;2.20;;;21.30;99.90;;;;;;5060751;28;20554;-51
2023/09/28 02:13:38;;;;;;;2.53;2.33;;;21.30;99.90;;;;;;5059650;28;20487;-57
2023/09/28 02:16:09;;;;;;;3.10;2.80;;;21.30;99.90;;;;;;5058255;28;20504;-51
2023/09/28 02:18:35;;;;;;;2.47;2.30;;;21.30;99.90;;;;;;5062143;28;20483;-49
2023/09/28 02:21:04;;;;;;;2.40;2.20;;;21.30;99.90;;;;;;5061562;28;20932;-49
2023/09/28 02:23:31;;;;;;;3.03;2.75;;;21.30;99.90;;;;;;5063565;28;20204;-52
2023/09/28 02:26:06;;;;;;;2.73;2.53;;;21.30;99.90;;;;;;5060226;28;20201;-54
2023/09/28 02:28:32;;;;;;;2.33;2.20;;;21.30;99.90;;;;;;5062216;28;20549;-47
2023/09/28 02:31:06;;;;;;;2.87;2.67;;;21.30;99.90;;;;;;5063523;28;20448;-54
2023/09/28 02:33:32;;;;;;;2.53;2.33;;;21.30;99.90;;;;;;5061114;28;20606;-47
2023/09/28 02:35:58;;;;;;;3.30;2.10;;;21.30;99.90;;;;;;5059577;28;20451;-49
2023/09/28 02:38:24;;;;;;;3.08;2.83;;;21.30;99.90;;;;;;5061354;28;20590;-50
2023/09/28 02:40:51;;;;;;;2.53;2.33;;;21.30;99.90;;;;;;5061125;28;20185;-51
2023/09/28 02:43:18;;;;;;;2.57;2.37;;;21.30;99.90;;;;;;5061461;28;20573;-49
2023/09/28 02:45:44;;;;;;;2.40;2.20;;;21.30;99.90;;;;;;5058739;28;20462;-52
2023/09/28 02:48:12;;;;;;;2.13;2.03;;;21.30;99.90;;;;;;5061660;28;20452;-55
2023/09/28 02:50:38;;;;;;;2.33;2.13;;;21.30;99.90;;;;;;5058268;28;20288;-55
2023/09/28 02:53:07;;;;;;;2.80;2.60;;;21.30;99.90;;;;;;5061040;28;20518;-51
2023/09/28 02:55:33;;;;;;;2.37;2.17;;;21.30;99.90;;;;;;5062520;28;20209;-56
2023/09/28 02:57:59;;;;;;;2.83;2.63;;;21.30;99.90;;;;;;5062108;28;20905;-52
2023/09/28 03:00:27;;;;;;;2.60;2.40;;;21.30;99.90;;;;;;5061578;28;20218;-49
2023/09/28 03:02:56;;;;;;;3.00;2.80;;;21.30;99.90;;;;;;5062028;28;20448;-54
2023/09/28 03:05:26;;;;;;;2.60;2.30;;;21.30;99.90;;;;;;5060937;28;21108;-47
2023/09/28 03:07:52;;;;;;;2.40;2.20;;;21.30;99.90;;;;;;5061240;28;20467;-46
2023/09/28 03:10:19;;;;;;;3.30;2.70;;;21.30;99.90;;;;;;5058998;28;20982;-55
2023/09/28 03:12:46;;;;;;;2.60;2.40;;;21.30;99.90;;;;;;5061276;28;20740;-58
2023/09/28 03:15:16;;;;;;;2.80;2.33;;;21.30;99.90;;;;;;5058559;28;20549;-59
2023/09/28 03:17:42;;;;;;;2.30;2.10;;;21.30;99.90;;;;;;5056742;28;20234;-47
2023/09/28 03:20:14;;;;;;;2.40;2.20;;;21.30;99.90;;;;;;5059461;28;20466;-54
2023/09/28 03:22:43;;;;;;;2.60;2.40;;;21.30;99.90;;;;;;5058779;28;20671;-46
2023/09/28 03:25:16;;;;;;;2.53;2.33;;;21.30;99.90;;;;;;5059512;28;20462;-46
2023/09/28 03:27:41;;;;;;;2.60;2.40;;;21.30;99.90;;;;;;5057467;28;21085;-53
2023/09/28 03:30:11;;;;;;;2.33;2.13;;;21.30;99.90;;;;;;5060165;28;20453;-52
2023/09/28 03:32:38;;;;;;;2.67;2.47;;;21.30;99.90;;;;;;5058858;28;20334;-51
2023/09/28 03:35:05;;;;;;;2.13;1.93;;;21.30;99.90;;;;;;5055425;28;20457;-52
2023/09/28 03:37:32;;;;;;;2.33;2.13;;;21.30;99.90;;;;;;5060032;28;20476;-59
2023/09/28 03:40:09;;;;;;;2.25;2.13;;;21.30;99.90;;;;;;5059590;28;20461;-49
2023/09/28 03:42:36;;;;;;;2.80;2.60;;;21.30;99.90;;;;;;5059533;28;20202;-51
2023/09/28 03:45:04;;;;;;;2.70;2.50;;;21.30;99.90;;;;;;5058108;28;20559;-56
2023/09/28 03:47:31;;;;;;;2.43;2.23;;;21.30;99.90;;;;;;5057072;28;20471;-51
2023/09/28 03:49:58;;;;;;;2.43;2.23;;;21.30;99.90;;;;;;5059997;28;21295;-50
2023/09/28 03:52:25;;;;;;;2.30;2.10;;;21.30;99.90;;;;;;5057514;28;20804;-56
2023/09/28 03:54:51;;;;;;;2.73;2.53;;;21.30;99.90;;;;;;5056806;28;20456;-50
2023/09/28 03:57:19;;;;;;;3.00;2.80;;;21.30;99.90;;;;;;5055911;28;20530;-57
2023/09/28 03:59:46;;;;;;;2.60;2.40;;;21.30;99.90;;;;;;5056010;28;20475;-55
2023/09/28 04:02:13;;;;;;;2.23;2.03;;;21.30;99.90;;;;;;5059593;28;20464;-49
2023/09/28 04:04:40;;;;;;;2.50;2.30;;;21.30;99.90;;;;;;5058805;28;20945;-58
2023/09/28 04:07:07;;;;;;;2.53;2.33;;;21.30;99.90;;;;;;5058839;28;20470;-55
2023/09/28 04:09:33;;;;;;;2.00;1.80;;;21.30;99.90;;;;;;5059433;28;20206;-46
2023/09/28 04:12:00;;;;;;;2.00;1.80;;;21.30;99.90;;;;;;5050755;28;21365;-49
2023/09/28 04:14:28;;;;;;;2.47;2.27;;;21.30;99.90;;;;;;5059223;28;20460;-57
2023/09/28 04:16:55;;;;;;;2.27;2.07;;;21.30;99.90;;;;;;5057163;28;20461;-46
2023/09/28 04:19:22;;;;;;;2.23;2.10;;;21.30;99.90;;;;;;5060833;28;20463;-47
2023/09/28 04:21:49;;;;;;;2.30;2.10;;;21.30;99.90;;;;;;5058852;28;20941;-48
2023/09/28 04:24:16;;;;;;;2.20;2.00;;;21.30;99.90;;;;;;5059253;28;20489;-51
2023/09/28 04:26:42;;;;;;;2.30;2.10;;;21.30;99.90;;;;;;5057990;28;20458;-49
2023/09/28 04:29:09;;;;;;;2.60;2.40;;;21.30;99.90;;;;;;5056346;28;20461;-46
2023/09/28 04:31:37;;;;;;;2.30;2.10;;;21.30;99.90;;;;;;5055654;28;20457;-49
2023/09/28 04:34:04;;;;;;;2.37;2.17;;;21.30;99.90;;;;;;5054623;28;20916;-52
2023/09/28 04:36:31;;;;;;;2.20;2.00;;;21.30;99.90;;;;;;5056564;28;20465;-51
2023/09/28 04:38:58;;;;;;;2.80;2.60;;;21.20;99.90;;;;;;5057770;28;20567;-47
2023/09/28 04:41:25;;;;;;;2.30;2.10;;;21.30;99.90;;;;;;5054589;28;20448;-50
2023/09/28 04:43:51;;;;;;;2.27;2.07;;;21.30;99.90;;;;;;5057951;28;20462;-58
2023/09/28 04:46:18;;;;;;;2.40;2.20;;;21.30;99.90;;;;;;5059298;28;20456;-52
2023/09/28 04:48:46;;;;;;;2.67;2.47;;;21.30;99.90;;;;;;5057287;28;20978;-55
2023/09/28 04:51:14;;;;;;;2.50;2.30;;;21.30;99.90;;;;;;5059971;28;20455;-50
2023/09/28 04:53:40;;;;;;;2.30;2.10;;;21.20;99.90;;;;;;5060549;28;20464;-51
2023/09/28 04:56:11;;;;;;;2.80;2.60;;;21.30;99.90;;;;;;5059611;28;20803;-55
2023/09/28 04:58:38;;;;;;;2.10;2.00;;;21.30;99.90;;;;;;5058339;28;20614;-55
2023/09/28 05:01:05;;;;;;;2.45;2.25;;;21.20;99.90;;;;;;5055555;28;20463;-50
2023/09/28 05:03:31;;;;;;;2.43;2.23;;;21.30;99.90;;;;;;5054031;28;20194;-50
2023/09/28 05:06:00;;;;;;;2.47;2.27;;;21.20;99.90;;;;;;5054063;28;20938;-54
2023/09/28 05:08:27;;;;;;;2.10;1.97;;;21.20;99.90;;;;;;5057363;28;20464;-53
2023/09/28 05:10:54;;;;;;;2.50;2.30;;;21.20;99.90;;;;;;5062328;28;22282;-48
2023/09/28 05:13:21;;;;;;;2.20;2.03;;;21.20;99.90;;;;;;5060264;28;20963;-46
2023/09/28 05:15:48;;;;;;;2.90;2.67;;;21.20;99.90;;;;;;5060253;28;20448;-46
2023/09/28 05:18:15;;;;;;;2.20;2.10;;;21.20;99.90;;;;;;5060232;28;20562;-54
2023/09/28 05:20:42;;;;;;;2.30;2.20;;;21.20;99.90;;;;;;5062456;28;20554;-50
2023/09/28 05:23:10;;;;;;;2.30;2.10;;;21.30;99.90;;;;;;5061215;28;20452;-51
2023/09/28 05:25:37;;;;;;;2.40;2.20;;;21.20;99.90;;;;;;5059073;28;20540;-45
2023/09/28 05:28:05;;;;;;;2.00;1.90;;;21.20;99.90;;;;;;5060907;28;20464;-55
2023/09/28 05:30:32;;;;;;;2.30;2.10;;;21.20;99.90;;;;;;5062416;28;20457;-54
2023/09/28 05:32:58;;;;;;;2.30;2.10;;;21.20;99.90;;;;;;5062594;28;20471;-47
2023/09/28 05:35:25;;;;;;;2.20;2.00;;;21.20;99.90;;;;;;5061474;28;20443;-53
2023/09/28 05:37:52;;;;;;;2.00;1.90;;;21.20;99.90;;;;;;5059320;28;20484;-50
2023/09/28 05:40:21;;;;;;;2.23;2.10;;;21.20;99.90;;;;;;5059219;28;20320;-51
2023/09/28 05:42:48;;;;;;;2.40;2.20;;;21.20;99.90;;;;;;5060393;28;21493;-53
2023/09/28 05:45:15;;;;;;;2.00;1.90;;;21.20;99.90;;;;;;5061254;28;20993;-49
2023/09/28 05:47:42;;;;;;;1.93;1.83;;;21.20;99.90;;;;;;5060061;28;20467;-49
2023/09/28 05:50:10;;;;;;;2.03;1.90;;;21.20;99.90;;;;;;5060570;28;20467;-51
2023/09/28 05:52:37;;;;;;;2.10;2.00;;;21.20;99.90;;;;;;5060586;28;20460;-52
2023/09/28 05:55:05;;;;;;;2.00;1.90;;;21.20;99.90;;;;;;5057577;28;22221;-51
2023/09/28 05:57:33;;;;;;;2.40;2.20;;;21.20;99.90;;;;;;5055458;28;20542;-52
2023/09/28 05:59:59;;;;;;;2.00;1.90;;;21.20;99.90;;;;;;5065921;28;20450;-54
2023/09/28 06:02:26;;;;;;;2.43;1.57;;;21.20;99.90;;;;;;5060785;28;20967;-47
2023/09/28 06:04:53;;;;;;;2.30;2.13;;;21.20;99.90;;;;;;5061212;28;20491;-52
2023/09/28 06:07:20;;;;;;;2.25;2.05;;;21.20;99.90;;;;;;5062367;28;20459;-52
2023/09/28 06:09:47;;;;;;;1.97;1.87;;;21.20;99.90;;;;;;5058893;28;20660;-53
2023/09/28 06:12:13;;;;;;;2.00;1.90;;;21.20;99.90;;;;;;5061806;28;20456;-58
2023/09/28 06:14:42;;;;;;;2.47;2.27;;;21.20;99.90;;;;;;5060137;28;20201;-50
2023/09/28 06:17:08;;;;;;;2.10;1.90;;;21.20;99.90;;;;;;5061294;28;20448;-53
2023/09/28 06:19:35;;;;;;;2.63;2.30;;;21.20;99.90;;;;;;5062943;28;20487;-54
2023/09/28 06:22:03;;;;;;;2.13;1.98;;;21.20;99.90;;;;;;5060486;28;20467;-53
2023/09/28 06:24:30;;;;;;;1.70;1.60;;;21.20;99.90;;;;;;5060965;28;20208;-57
2023/09/28 06:26:56;;;;;;;2.57;2.30;;;21.20;99.90;;;;;;5061247;28;21085;-56
2023/09/28 06:29:23;;;;;;;2.20;2.00;;;21.30;99.90;;;;;;5059962;28;20467;-44
2023/09/28 06:31:51;;;;;;;2.25;2.15;;;21.30;99.90;;;;;;5059795;28;20461;-55
2023/09/28 06:34:18;;;;;;;2.60;2.40;;;21.20;99.90;;;;;;5059394;28;20210;-53
2023/09/28 06:36:45;;;;;;;2.00;1.63;;;21.30;99.90;;;;;;5058194;28;20270;-51
2023/09/28 06:39:12;;;;;;;1.80;1.70;;;21.30;99.90;;;;;;5059146;28;20481;-46
2023/09/28 06:41:39;;;;;;;2.07;1.87;;;21.30;99.90;;;;;;5057164;28;20232;-54
2023/09/28 06:44:08;;;;;;;2.08;1.88;;;21.30;99.90;;;;;;5053159;28;20459;-55
2023/09/28 06:46:35;;;;;;;2.28;2.17;;;21.30;99.90;;;;;;5054116;28;20581;-46
2023/09/28 06:49:05;;;;;;;2.80;2.60;;;21.30;99.90;;;;;;5055829;28;20205;-48
2023/09/28 06:51:32;;;;;;;2.60;2.40;;;21.30;99.90;;;;;;5058415;28;20498;-47
2023/09/28 06:53:59;;;;;;;2.20;2.00;;;21.30;99.90;;;;;;5059523;28;20455;-46
2023/09/28 06:56:26;;;;;;;2.28;2.13;;;21.30;99.90;;;;;;5057513;28;20456;-49
2023/09/28 06:58:53;;;;;;;2.30;2.10;;;21.30;99.90;;;;;;5055987;28;20241;-54
2023/09/28 07:01:22;;;;;;;2.80;1.90;;;21.30;99.90;;;;;;5056850;28;20210;-54
2023/09/28 07:03:52;;;;;;;2.30;2.10;;;21.30;99.90;;;;;;5057721;28;20679;-55
2023/09/28 07:06:22;;;;;;;2.17;1.92;;;21.30;99.90;;;;;;5056282;28;20197;-56
2023/09/28 07:08:49;;;;;;;2.60;2.30;;;21.30;99.90;;;;;;5056408;28;20204;-51
2023/09/28 07:11:15;;;;;;;3.75;1.83;;;21.30;99.90;;;;;;5057883;28;20694;-44
2023/09/28 07:13:42;;;;;;;3.53;2.20;;;21.30;99.90;;;;;;5055834;28;20568;-53
2023/09/28 07:16:09;;;;;;;5.53;2.55;;;21.30;99.90;;;;;;5056918;28;20532;-46
2023/09/28 07:18:37;;;;;;;8.80;3.03;;;21.30;99.90;;;;;;5055242;28;20236;-47
2023/09/28 07:21:04;;;;;;;5.73;2.87;;;21.30;99.90;;;;;;5054528;28;20488;-48
2023/09/28 07:23:32;;;;;;;5.25;3.00;;;21.30;99.90;;;;;;5058838;28;20947;-49
2023/09/28 07:26:00;;;;;;;3.20;2.17;;;21.30;99.90;;;;;;5055424;28;20202;-54
2023/09/28 07:28:28;;;;;;;3.53;2.40;;;21.30;99.90;;;;;;5057034;28;20543;-50
2023/09/28 07:30:55;;;;;;;5.80;2.42;;;21.30;99.90;;;;;;5057263;28;20209;-49
2023/09/28 07:33:21;;;;;;;5.13;2.43;;;21.30;99.90;;;;;;5057084;28;20225;-48
2023/09/28 07:35:49;;;;;;;6.75;2.47;;;21.30;99.90;;;;;;5056286;28;20456;-57
2023/09/28 07:38:15;;;;;;;8.43;2.80;;;21.30;99.90;;;;;;5054366;28;20750;-52
2023/09/28 07:40:43;;;;;;;5.77;2.67;;;21.30;99.90;;;;;;5056955;28;20194;-56
2023/09/28 07:43:10;;;;;;;9.40;3.50;;;21.30;99.90;;;;;;5057510;28;20471;-52
2023/09/28 07:45:37;;;;;;;4.70;2.43;;;21.30;99.90;;;;;;5056479;28;20460;-49
2023/09/28 07:48:05;;;;;;;5.85;3.10;;;21.40;99.90;;;;;;5058555;28;20576;-50
2023/09/28 07:50:31;;;;;;;5.13;2.72;;;21.30;99.90;;;;;;5058902;28;20198;-47
2023/09/28 07:52:59;;;;;;;5.23;3.33;;;21.30;99.90;;;;;;5055940;28;20201;-52
2023/09/28 07:55:25;;;;;;;5.70;3.37;;;21.30;99.90;;;;;;5055742;28;20469;-50
2023/09/28 07:57:54;;;;;;;3.40;2.80;;;21.30;99.90;;;;;;5052838;28;20462;-54
2023/09/28 08:00:21;;;;;;;3.83;2.40;;;21.40;99.90;;;;;;5045870;28;20736;-46
2023/09/28 08:02:48;;;;;;;3.10;2.87;;;21.40;99.90;;;;;;5052616;28;20452;-52
2023/09/28 08:05:15;;;;;;;6.10;2.93;;;21.40;99.90;;;;;;5054355;28;20549;-59
2023/09/28 08:07:42;;;;;;;5.10;3.53;;;21.40;99.90;;;;;;5052050;28;20456;-46
2023/09/28 08:10:10;;;;;;;2.80;2.60;;;21.40;99.90;;;;;;5054206;28;20197;-54
2023/09/28 08:12:37;;;;;;;5.03;2.80;;;21.40;99.90;;;;;;5054914;28;21136;-55
2023/09/28 08:15:06;;;;;;;3.08;2.78;;;21.40;99.90;;;;;;5056489;28;20462;-54
2023/09/28 08:17:33;;;;;;;3.90;2.50;;;21.40;99.90;;;;;;5056045;28;20198;-51
2023/09/28 08:20:00;;;;;;;3.20;2.73;;;21.40;99.90;;;;;;5055357;28;20549;-47
2023/09/28 08:22:27;;;;;;;3.50;2.87;;;21.40;99.90;;;;;;5054958;28;20495;-49
2023/09/28 08:24:54;;;;;;;4.40;2.67;;;21.40;99.90;;;;;;5052315;28;20912;-53
2023/09/28 08:27:20;;;;;;;5.40;2.20;;;21.40;99.90;;;;;;5051866;28;21225;-48
2023/09/28 08:29:47;;;;;;;3.30;2.80;;;21.40;99.90;;;;;;5056925;28;20459;-51
2023/09/28 08:32:15;;;;;;;3.43;2.57;;;21.40;99.90;;;;;;5053885;28;20466;-48
2023/09/28 08:34:42;;;;;;;2.83;2.63;;;21.40;99.90;;;;;;5054703;28;21073;-50
2023/09/28 08:37:08;;;;;;;5.97;2.87;;;21.40;99.90;;;;;;5058720;28;20461;-50
2023/09/28 08:39:37;;;;;;;4.87;2.93;;;21.40;99.90;;;;;;5058598;28;21077;-52
2023/09/28 08:42:07;;;;;;;5.50;3.17;;;21.40;99.90;;;;;;5054436;28;21072;-56
2023/09/28 08:44:35;;;;;;;3.00;2.67;;;21.40;99.90;;;;;;5053381;28;20463;-47
2023/09/28 08:47:10;;;;;;;3.53;3.00;;;21.40;99.90;;;;;;5056538;28;20945;-49
2023/09/28 08:49:39;;;;;;;3.60;2.53;;;21.40;99.90;;;;;;5058755;28;20200;-54
2023/09/28 08:52:06;;;;;;;3.23;2.87;;;21.40;99.90;;;;;;5057087;28;20466;-51
2023/09/28 08:54:33;;;;;;;4.60;2.60;;;21.40;99.90;;;;;;5058319;28;20465;-48
2023/09/28 08:57:00;;;;;;;3.63;2.73;;;21.40;99.90;;;;;;5057442;28;21062;-55
2023/09/28 08:59:30;;;;;;;5.50;2.80;;;21.40;99.90;;;;;;5054236;28;20475;-47
2023/09/28 09:02:00;;;;;;;4.47;2.60;;;21.40;99.90;;;;;;5057324;28;22250;-49
2023/09/28 09:04:26;;;;;;;4.07;2.93;;;21.40;99.90;;;;;;5054727;28;20947;-52
2023/09/28 09:06:55;;;;;;;4.83;2.83;;;21.40;99.90;;;;;;5058000;28;20801;-49
2023/09/28 09:09:24;;;;;;;2.73;2.50;;;21.40;99.90;;;;;;5056341;28;21099;-47
2023/09/28 09:11:53;;;;;;;3.07;2.60;;;21.40;99.90;;;;;;5057980;28;20465;-49
2023/09/28 09:14:20;;;;;;;3.60;3.23;;;21.40;99.90;;;;;;5057655;28;20460;-50
2023/09/28 09:16:47;;;;;;;2.33;2.13;;;21.40;99.90;;;;;;5058233;28;20464;-53
2023/09/28 09:19:15;;;;;;;2.77;2.43;;;21.50;99.90;;;;;;5055505;28;20488;-53
2023/09/28 09:21:44;;;;;;;4.37;2.90;;;21.40;99.90;;;;;;5054732;28;20650;-56
2023/09/28 09:24:14;;;;;;;2.83;2.63;;;21.50;99.90;;;;;;5056388;28;20452;-50
2023/09/28 09:26:41;;;;;;;5.03;2.50;;;21.50;99.90;;;;;;5054125;28;21056;-49
2023/09/28 09:29:08;;;;;;;4.43;2.60;;;21.50;99.90;;;;;;5054339;28;20459;-51
2023/09/28 09:31:38;;;;;;;3.63;2.30;;;21.50;99.90;;;;;;5057546;28;20463;-45
2023/09/28 09:34:05;;;;;;;6.20;3.20;;;21.40;99.90;;;;;;5058725;28;21007;-48
2023/09/28 09:36:32;;;;;;;9.43;2.30;;;21.50;99.90;;;;;;5059655;28;20947;-46
2023/09/28 09:38:59;;;;;;;2.95;2.67;;;21.50;99.90;;;;;;5059091;28;20486;-46
2023/09/28 09:41:28;;;;;;;3.90;2.83;;;21.40;99.90;;;;;;5056353;28;20227;-53
2023/09/28 09:43:58;;;;;;;4.20;2.83;;;21.50;99.90;;;;;;5057765;28;20483;-47
2023/09/28 09:46:26;;;;;;;2.60;2.40;;;21.50;99.90;;;;;;5057765;28;20459;-47
2023/09/28 09:48:54;;;;;;;3.90;2.60;;;21.50;99.90;;;;;;5054778;28;20612;-47
2023/09/28 09:51:21;;;;;;;3.77;2.63;;;21.50;99.90;;;;;;5057592;28;20479;-48
2023/09/28 09:53:48;;;;;;;5.97;2.70;;;21.50;99.90;;;;;;5054486;28;20455;-49
2023/09/28 09:56:16;;;;;;;2.60;2.40;;;21.40;99.90;;;;;;5058979;28;20829;-46
2023/09/28 09:58:48;;;;;;;3.03;2.37;;;21.50;99.90;;;;;;5061645;28;20902;-45
2023/09/28 10:01:16;;;;;;;3.73;2.60;;;21.50;99.90;;;;;;5060902;28;20462;-48
2023/09/28 10:03:47;;;;;;;7.63;2.47;;;21.50;99.90;;;;;;5055945;28;20516;-46
2023/09/28 10:06:16;;;;;;;7.40;2.50;;;21.50;99.90;;;;;;5053433;28;20452;-57
2023/09/28 10:08:45;;;;;;;3.90;2.97;;;21.50;99.90;;;;;;5061898;28;20501;-47
2023/09/28 10:11:12;;;;;;;4.50;2.30;;;21.50;99.90;;;;;;5060634;28;20518;-48
2023/09/28 10:13:40;;;;;;;3.37;3.07;;;21.50;99.90;;;;;;5062942;28;20457;-52
2023/09/28 10:16:11;;;;;;;3.60;2.50;;;21.50;99.90;;;;;;5064195;28;20459;-48
2023/09/28 10:18:40;;;;;;;2.37;1.87;;;21.50;99.90;;;;;;5060627;28;20459;-57
2023/09/28 10:21:07;;;;;;;3.50;2.33;;;21.50;99.90;;;;;;5061652;28;20503;-49
2023/09/28 10:23:35;;;;;;;3.87;2.40;;;21.50;99.90;;;;;;5063253;28;20460;-52
2023/09/28 10:26:07;;;;;;;2.93;2.20;;;21.50;99.90;;;;;;5057493;28;20456;-49
2023/09/28 10:28:34;;;;;;;3.00;2.80;;;21.50;99.90;;;;;;5061432;28;20480;-48
2023/09/28 10:31:10;;;;;;;4.00;3.37;;;21.50;99.90;;;;;;5059260;28;20468;-53
2023/09/28 10:33:52;;;;;;;2.40;2.20;;;21.50;99.90;;;;;;5061569;28;20460;-51
2023/09/28 10:36:19;;;;;;;2.83;2.53;;;21.50;99.90;;;;;;5060818;28;20456;-52
2023/09/28 10:38:46;;;;;;;4.53;2.10;;;21.50;99.90;;;;;;5059450;28;20790;-54
2023/09/28 10:41:13;;;;;;;3.53;2.50;;;21.50;99.90;;;;;;5057637;28;20995;-51
2023/09/28 10:43:42;;;;;;;3.00;2.70;;;21.40;99.90;;;;;;5060009;28;20795;-53
2023/09/28 10:46:11;;;;;;;3.17;2.53;;;21.50;99.90;;;;;;5060193;28;20471;-48
2023/09/28 10:48:41;;;;;;;3.27;2.97;;;21.50;99.90;;;;;;5057699;28;20460;-52
2023/09/28 10:51:12;;;;;;;3.23;2.80;;;21.50;99.90;;;;;;5059580;28;20463;-52
2023/09/28 10:53:39;;;;;;;3.67;2.20;;;21.50;99.90;;;;;;5060759;28;20460;-59
2023/09/28 10:56:06;;;;;;;2.20;2.10;;;21.50;99.90;;;;;;5061666;28;20906;-46
2023/09/28 10:58:34;;;;;;;2.80;2.50;;;21.50;99.90;;;;;;5059445;28;20463;-46
2023/09/28 11:01:05;;;;;;;2.47;2.27;;;21.50;99.90;;;;;;5060272;28;20772;-53
2023/09/28 11:03:33;;;;;;;2.50;2.10;;;21.50;99.90;;;;;;5057853;28;20462;-48
2023/09/28 11:06:02;;;;;;;5.00;2.43;;;21.50;99.90;;;;;;5057574;28;20480;-51
2023/09/28 11:08:29;;;;;;;3.10;2.30;;;21.50;99.90;;;;;;5061572;28;20474;-49
2023/09/28 11:10:58;;;;;;;4.27;2.37;;;21.50;99.90;;;;;;5054723;28;21068;-54
2023/09/28 11:13:25;;;;;;;2.47;2.27;;;21.50;99.90;;;;;;5055431;28;21012;-60
2023/09/28 11:15:52;;;;;;;8.63;2.33;;;21.50;99.90;;;;;;5057320;28;20464;-48
2023/09/28 11:18:19;;;;;;;3.23;2.90;;;21.50;99.90;;;;;;5058844;28;20542;-54
2023/09/28 11:20:47;;;;;;;4.97;2.60;;;21.50;99.90;;;;;;5059611;28;20471;-51
2023/09/28 11:23:14;;;;;;;3.97;2.10;;;21.50;99.90;;;;;;5063547;28;20456;-52
2023/09/28 11:25:42;;;;;;;4.60;3.10;;;21.50;99.90;;;;;;5060642;28;20937;-53
2023/09/28 11:28:09;;;;;;;4.07;2.50;;;21.50;99.90;;;;;;5060887;28;20507;-45
2023/09/28 11:30:36;;;;;;;3.83;2.70;;;21.50;99.90;;;;;;5056001;28;20878;-51
2023/09/28 11:33:04;;;;;;;3.23;2.67;;;21.50;99.90;;;;;;5058510;28;20556;-54
2023/09/28 11:35:32;;;;;;;4.40;2.80;;;21.60;99.90;;;;;;5055712;28;20469;-56
2023/09/28 11:38:01;;;;;;;2.80;2.17;;;21.60;99.90;;;;;;5058833;28;21062;-60
2023/09/28 11:40:30;;;;;;;2.87;2.20;;;21.60;99.90;;;;;;5059041;28;20479;-56
2023/09/28 11:42:58;;;;;;;5.03;2.53;;;21.60;99.90;;;;;;5051877;28;21381;-59
2023/09/28 11:45:28;;;;;;;3.00;2.30;;;21.60;99.90;;;;;;5051839;28;20458;-62
2023/09/28 11:47:55;;;;;;;3.43;2.33;;;21.60;99.90;;;;;;5050897;28;20777;-60
2023/09/28 11:50:23;;;;;;;3.40;2.47;;;21.70;99.90;;;;;;5057731;28;21846;-53
2023/09/28 11:52:51;;;;;;;3.67;3.37;;;21.70;99.90;;;;;;5058102;28;20601;-54
2023/09/28 11:55:20;;;;;;;2.63;2.40;;;21.70;99.90;;;;;;5060151;28;20457;-55
2023/09/28 11:57:47;;;;;;;3.00;2.33;;;21.70;99.90;;;;;;5058368;28;20820;-56
2023/09/28 12:00:18;;;;;;;2.30;2.10;;;21.70;99.90;;;;;;5056828;28;20484;-47
2023/09/28 12:02:46;;;;;;;3.83;1.90;;;21.80;99.90;;;;;;5054607;28;20542;-51
2023/09/28 12:05:12;;;;;;;2.33;2.00;;;21.80;99.90;;;;;;5057750;28;20536;-52
2023/09/28 12:07:40;;;;;;;3.10;2.27;;;21.80;99.90;;;;;;5060161;28;20468;-54
2023/09/28 12:10:08;;;;;;;2.47;2.27;;;21.80;99.90;;;;;;5058585;28;20732;-63
2023/09/28 12:12:37;;;;;;;2.53;2.33;;;21.80;99.90;;;;;;5053539;28;20470;-59
2023/09/28 12:15:07;;;;;;;3.50;2.30;;;21.80;99.90;;;;;;5055216;28;21391;-50
2023/09/28 12:17:34;;;;;;;2.77;2.20;;;21.90;99.90;;;;;;5055720;28;20452;-56
2023/09/28 12:20:01;;;;;;;2.80;2.50;;;21.90;99.90;;;;;;5054243;28;20484;-46
2023/09/28 12:22:28;;;;;;;4.47;2.20;;;21.90;99.90;;;;;;5054996;28;20463;-52
2023/09/28 12:24:55;;;;;;;2.70;2.50;;;21.90;99.90;;;;;;5049716;28;20460;-55
2023/09/28 12:27:23;;;;;;;3.37;2.57;;;21.90;99.90;;;;;;5051832;28;20467;-52
2023/09/28 12:29:52;;;;;;;3.20;2.60;;;22.00;99.90;;;;;;5052067;28;20464;-52
2023/09/28 12:32:18;;;;;;;2.83;2.00;;;22.00;99.90;;;;;;5050936;28;20454;-58
2023/09/28 12:34:45;;;;;;;2.50;2.30;;;22.00;99.90;;;;;;5054122;28;20812;-47
2023/09/28 12:37:12;;;;;;;2.23;2.13;;;22.00;99.90;;;;;;5051205;28;20925;-54
2023/09/28 12:39:39;;;;;;;2.27;1.90;;;22.00;99.90;;;;;;5052438;28;20470;-57
2023/09/28 12:42:05;;;;;;;2.43;2.00;;;22.00;99.90;;;;;;5049555;28;21943;-55
2023/09/28 12:44:33;;;;;;;5.47;2.30;;;22.10;99.90;;;;;;5052602;28;20950;-57
2023/09/28 12:47:02;;;;;;;2.60;2.40;;;22.10;99.90;;;;;;5053113;28;20914;-49
2023/09/28 12:49:29;;;;;;;2.00;1.90;;;22.10;99.90;;;;;;5053729;28;20458;-57